Indianapolis, Indiana
Traffic Map
Current Weather Conditions
Indianapolis, Indiana
Overcast
Overcast
50°
Feels Like: 50°
Wind Chill: 50° Ceiling: 11000
Heat Index: 50° Visibility: 10mi
Dew Point: 30° Wind: 18mph
Humidity: 46% Direction: 120° (ESE)
Pressure: 30.04in Gusts: 25mph
Raw Report DataKIND 241354Z 12016G22KT 10SM BKN110 BKN130 OVC230 10/M01 A3004 RMK AO2 SLP175 T01001011
Traffic Incident Summary
Active as of:
Severity:
Category:
InformationThere was an issue retrieving the traffic information for this location. Please try a different location or try again shortly.
Advertisements
At Last! Intellicast now available for iPhone and Android